2D5

Oakes Municipal Airport

Oakes, North Dakota, USA
METAR K2D5 170015Z AUTO 02007KT 10SM CLR 26/18 A3005 RMK AO2 PWINO
Observed Flight Rules
Jul-17 @ 00:15 UTC (10 minutes ago) Visual Flight Rules
Wind Visibility Clouds
20° at 7 knots 10 miles
  • Clear skies
Temperatures Readings
Current 26°C / 79°F
Dewpoint 18°C / 64°F
Humidity 61%
Altimeter 30.05" Hg
Pressure 1018 hPa
Elevation 407
METAR K2D5 170015Z AUTO 02007KT 10SM CLR 26/18 A3005 RMK AO2 PWINO
Observed Flight Rules
Jul-17 @ 00:15 UTC
(10 minutes ago)
VFR
Wind Visibility
20° at 7 knots 10 miles
Clouds
  • Clear skies
Temperature Dewpoint
26°C / 79°F 18°C / 64°F
Humidity Altimeter Pressure
61% 30.05" Hg 1018 hPa